createdAt,value
2023-04-06T00:02:07.397Z,56.27
2023-04-06T00:04:37.784Z,57.59
2023-04-06T00:07:08.552Z,58.33
2023-04-06T00:09:41.545Z,58.09
2023-04-06T00:12:11.925Z,58.38
2023-04-06T00:14:42.263Z,56.61
2023-04-06T00:17:12.624Z,53.70
2023-04-06T00:19:42.977Z,53.73
2023-04-06T00:22:13.423Z,53.27
2023-04-06T00:24:46.432Z,52.92
2023-04-06T00:27:16.831Z,55.95
2023-04-06T00:29:48.153Z,52.90
2023-04-06T00:32:18.605Z,54.23
2023-04-06T00:34:48.981Z,55.48
2023-04-06T00:37:20.335Z,55.56
2023-04-06T00:39:53.253Z,55.21
2023-04-06T00:42:27.146Z,53.77
2023-04-06T00:44:57.724Z,53.34
2023-04-06T00:47:29.064Z,54.06
2023-04-06T00:49:59.599Z,53.33
2023-04-06T00:52:29.899Z,52.56
2023-04-06T00:55:02.824Z,52.69
2023-04-06T00:57:33.720Z,51.90
2023-04-06T01:00:04.436Z,51.93
2023-04-06T01:02:34.821Z,51.33
2023-04-06T01:05:05.386Z,51.54
2023-04-06T01:07:49.407Z,52.09
2023-04-06T01:10:35.037Z,51.65
2023-04-06T01:13:16.466Z,51.79
2023-04-06T01:15:55.086Z,51.81
2023-04-06T01:18:33.085Z,52.29
2023-04-06T01:21:16.952Z,52.22
2023-04-06T01:24:13.662Z,52.42
2023-04-06T01:27:19.579Z,52.87
2023-04-06T01:30:11.521Z,52.98
2023-04-06T01:33:03.735Z,53.14
2023-04-06T01:36:02.253Z,52.48
2023-04-06T01:38:33.080Z,52.55
2023-04-06T01:41:06.428Z,52.77
2023-04-06T01:43:48.777Z,52.77
2023-04-06T01:46:19.636Z,52.48
2023-04-06T01:48:50.118Z,52.45
2023-04-06T01:51:32.763Z,52.90
2023-04-06T01:54:05.527Z,52.62
2023-04-06T01:56:58.730Z,52.78
2023-04-06T01:59:38.775Z,52.49
2023-04-06T02:02:16.695Z,52.80
2023-04-06T02:04:56.237Z,52.92
2023-04-06T02:07:27.101Z,52.77
2023-04-06T02:09:59.243Z,52.84
2023-04-06T02:12:40.554Z,53.21
2023-04-06T02:15:14.867Z,52.92
2023-04-06T02:17:46.103Z,52.91
2023-04-06T02:20:16.551Z,53.14
2023-04-06T02:22:46.948Z,53.37
2023-04-06T02:25:17.312Z,52.79
2023-04-06T02:27:50.246Z,52.44
2023-04-06T02:30:20.560Z,52.35
2023-04-06T02:32:50.997Z,52.14
2023-04-06T02:35:21.508Z,52.34
2023-04-06T02:37:57.200Z,52.09
2023-04-06T02:40:27.987Z,52.06
2023-04-06T02:43:01.905Z,52.28
2023-04-06T02:45:35.522Z,52.34
2023-04-06T02:48:06.823Z,52.15
2023-04-06T02:50:37.591Z,52.01
2023-04-06T02:53:10.668Z,52.46
2023-04-06T02:55:42.836Z,52.42
2023-04-06T02:58:16.011Z,51.93
2023-04-06T03:00:50.651Z,52.18
2023-04-06T03:03:21.093Z,52.01
2023-04-06T03:05:51.756Z,52.17
2023-04-06T03:08:29.529Z,52.29
2023-04-06T03:10:59.916Z,52.10
2023-04-06T03:13:42.287Z,52.22
2023-04-06T03:16:14.107Z,52.65
2023-04-06T03:18:45.966Z,52.11
2023-04-06T03:21:20.509Z,52.23
2023-04-06T03:23:53.382Z,52.15
2023-04-06T03:26:23.718Z,51.94
2023-04-06T03:28:58.480Z,52.20
2023-04-06T03:31:33.745Z,52.27
2023-04-06T03:34:10.488Z,52.23
2023-04-06T03:36:40.815Z,52.70
2023-04-06T03:39:11.120Z,52.68
2023-04-06T03:41:45.605Z,52.56
2023-04-06T03:44:38.008Z,52.91
2023-04-06T03:47:09.870Z,53.11
2023-04-06T03:49:40.678Z,53.04
2023-04-06T03:52:13.880Z,52.78
2023-04-06T03:54:44.207Z,52.33
2023-04-06T03:57:15.004Z,52.38
2023-04-06T03:59:48.075Z,52.31
2023-04-06T04:02:18.752Z,52.43
2023-04-06T04:04:49.408Z,52.03
2023-04-06T04:07:19.849Z,52.40
2023-04-06T04:09:50.180Z,52.14
2023-04-06T04:12:20.523Z,52.05
2023-04-06T04:14:53.508Z,51.96
2023-04-06T04:17:23.923Z,52.28
2023-04-06T04:19:54.227Z,52.19
2023-04-06T04:22:24.618Z,52.05
2023-04-06T04:24:55.101Z,52.04
2023-04-06T04:27:25.786Z,52.28
2023-04-06T04:29:59.358Z,52.31
2023-04-06T04:32:30.730Z,52.36
2023-04-06T04:35:02.980Z,52.51
2023-04-06T04:37:40.639Z,52.69
2023-04-06T04:40:13.594Z,52.55
2023-04-06T04:43:07.545Z,52.90
2023-04-06T04:45:41.544Z,52.77
2023-04-06T04:48:34.922Z,52.83
2023-04-06T04:51:08.701Z,52.55
2023-04-06T04:53:58.458Z,52.78
2023-04-06T04:56:33.034Z,52.62
2023-04-06T04:59:35.534Z,52.17
2023-04-06T05:02:17.307Z,51.83
2023-04-06T05:05:06.737Z,51.83
2023-04-06T05:07:37.215Z,52.70
2023-04-06T05:10:10.521Z,52.88
2023-04-06T05:12:50.265Z,52.10
2023-04-06T05:15:20.787Z,51.53
2023-04-06T05:17:56.703Z,51.65
2023-04-06T05:20:34.128Z,53.10
2023-04-06T05:23:04.576Z,51.50
2023-04-06T05:25:35.120Z,51.40
2023-04-06T05:28:17.194Z,51.40
2023-04-06T05:30:49.123Z,50.62
2023-04-06T05:33:23.252Z,50.09
2023-04-06T05:36:19.556Z,50.66
2023-04-06T05:38:51.998Z,50.24
2023-04-06T05:41:46.384Z,50.03
2023-04-06T05:44:18.205Z,49.52
2023-04-06T05:46:53.145Z,49.76
2023-04-06T05:49:26.122Z,49.34
2023-04-06T05:51:56.889Z,49.14
2023-04-06T05:54:27.524Z,49.25
2023-04-06T05:57:03.250Z,49.20
2023-04-06T05:59:34.550Z,49.17
2023-04-06T06:02:05.225Z,49.36
2023-04-06T06:04:41.041Z,49.22
2023-04-06T06:07:11.508Z,49.56
2023-04-06T06:09:47.707Z,49.49
2023-04-06T06:12:26.388Z,49.20
2023-04-06T06:14:56.883Z,49.17
2023-04-06T06:17:28.954Z,48.99
2023-04-06T06:20:03.071Z,48.56
2023-04-06T06:22:33.595Z,48.48
2023-04-06T06:25:04.130Z,47.76
2023-04-06T06:27:34.638Z,47.53
2023-04-06T06:30:05.499Z,47.81
2023-04-06T06:32:36.821Z,47.15
2023-04-06T06:35:10.646Z,46.81
2023-04-06T06:37:41.939Z,46.46
2023-04-06T06:40:19.060Z,46.25
2023-04-06T06:42:51.483Z,45.32
2023-04-06T06:45:30.610Z,45.64
2023-04-06T06:48:01.146Z,45.61
2023-04-06T06:50:34.241Z,45.00
2023-04-06T06:53:04.558Z,44.75
2023-04-06T06:55:34.840Z,44.51
2023-04-06T06:58:05.206Z,44.58
2023-04-06T07:00:36.361Z,44.39
2023-04-06T07:03:07.358Z,44.12
2023-04-06T07:05:41.497Z,44.07
2023-04-06T07:08:12.018Z,43.75
2023-04-06T07:10:42.426Z,43.50
2023-04-06T07:13:13.554Z,42.60
2023-04-06T07:15:44.019Z,42.39
2023-04-06T07:18:14.507Z,42.35
2023-04-06T07:20:47.811Z,40.83
2023-04-06T07:23:19.267Z,40.01
2023-04-06T07:25:52.134Z,39.55
2023-04-06T07:28:22.427Z,39.21
2023-04-06T07:30:52.904Z,38.62
2023-04-06T07:33:23.467Z,38.28
2023-04-06T07:35:57.276Z,37.68
2023-04-06T07:38:28.046Z,37.01
2023-04-06T07:40:58.823Z,35.77
2023-04-06T07:43:29.311Z,34.94
2023-04-06T07:46:01.158Z,34.09
2023-04-06T07:48:31.617Z,34.01
2023-04-06T07:51:10.040Z,32.90
2023-04-06T07:53:43.499Z,31.64
2023-04-06T07:56:13.853Z,30.62
2023-04-06T07:58:44.184Z,29.17
2023-04-06T08:01:14.664Z,27.66
2023-04-06T08:03:45.176Z,27.26
2023-04-06T08:06:18.301Z,24.96
2023-04-06T08:08:48.650Z,24.38
2023-04-06T08:11:18.914Z,23.84
2023-04-06T08:13:49.249Z,21.69
2023-04-06T08:16:19.627Z,21.16
2023-04-06T08:18:50.037Z,20.92
2023-04-06T08:21:22.958Z,22.81
2023-04-06T08:23:53.315Z,22.64
2023-04-06T08:26:23.669Z,22.81
2023-04-06T08:28:54.190Z,22.06
2023-04-06T08:31:24.620Z,22.18
2023-04-06T08:33:55.015Z,22.10
2023-04-06T08:36:27.931Z,21.18
2023-04-06T08:41:28.195Z,18.55
2023-04-06T08:44:06.189Z,17.49
2023-04-06T08:46:36.629Z,17.06
2023-04-06T08:49:08.019Z,16.75
2023-04-06T08:51:41.594Z,16.91
2023-04-06T08:54:12.000Z,15.71
2023-04-06T08:56:43.027Z,16.34
2023-04-06T08:59:13.498Z,16.64
2023-04-06T09:01:45.245Z,16.60
2023-04-06T09:04:16.460Z,16.45
2023-04-06T09:06:51.139Z,15.34
2023-04-06T09:09:24.132Z,15.32
2023-04-06T09:11:56.238Z,15.23
2023-04-06T09:14:39.154Z,14.13
2023-04-06T09:17:09.767Z,14.69
2023-04-06T09:19:49.798Z,13.84
2023-04-06T09:22:23.054Z,14.08
2023-04-06T09:24:57.665Z,13.72
2023-04-06T09:27:37.837Z,13.40
2023-04-06T09:30:11.158Z,13.98
2023-04-06T09:32:53.130Z,14.06
2023-04-06T09:35:24.244Z,14.26
2023-04-06T09:37:57.769Z,12.98
2023-04-06T09:40:30.370Z,12.61
2023-04-06T09:43:01.024Z,13.09
2023-04-06T09:45:34.081Z,13.02
2023-04-06T09:48:04.747Z,14.38
2023-04-06T09:50:36.165Z,14.99
2023-04-06T09:53:09.572Z,13.75
2023-04-06T09:55:46.091Z,13.55
2023-04-06T09:58:20.402Z,13.97
2023-04-06T10:00:54.799Z,15.31
2023-04-06T10:03:31.485Z,15.30
2023-04-06T10:06:05.914Z,15.50
2023-04-06T10:08:41.676Z,14.37
2023-04-06T10:11:12.632Z,15.05
2023-04-06T10:13:43.254Z,15.45
2023-04-06T10:16:14.045Z,14.68
2023-04-06T10:18:46.796Z,15.00
2023-04-06T10:21:21.606Z,14.51
2023-04-06T10:23:57.547Z,15.52
2023-04-06T10:26:27.959Z,15.16
2023-04-06T10:28:59.102Z,15.54
2023-04-06T10:31:30.452Z,15.22
2023-04-06T10:34:01.471Z,14.95
2023-04-06T10:36:32.887Z,15.37
2023-04-06T10:39:08.093Z,15.11
2023-04-06T10:41:39.420Z,15.04
2023-04-06T10:44:09.856Z,14.45
2023-04-06T10:46:40.410Z,14.44
2023-04-06T10:49:16.846Z,14.73
2023-04-06T10:51:47.178Z,13.86
2023-04-06T10:54:20.526Z,13.91
2023-04-06T10:56:50.845Z,14.20
2023-04-06T10:59:23.877Z,14.14
2023-04-06T11:01:54.404Z,13.20
2023-04-06T11:04:25.447Z,14.52
2023-04-06T11:06:56.337Z,14.34
2023-04-06T11:09:33.636Z,13.20
2023-04-06T11:12:04.313Z,13.17
2023-04-06T11:14:34.737Z,13.38
2023-04-06T11:17:05.106Z,13.37
2023-04-06T11:19:36.131Z,14.01
2023-04-06T11:22:13.622Z,11.43
2023-04-06T11:24:46.531Z,11.41
2023-04-06T11:27:17.673Z,11.44
2023-04-06T11:29:48.204Z,12.35
2023-04-06T11:32:25.737Z,11.96
2023-04-06T11:34:56.239Z,11.60
2023-04-06T11:37:30.720Z,11.34
2023-04-06T11:40:04.187Z,11.01
2023-04-06T11:42:34.475Z,11.68
2023-04-06T11:45:04.844Z,11.86
2023-04-06T11:47:37.405Z,11.37
2023-04-06T11:50:12.591Z,11.63
2023-04-06T11:52:43.624Z,10.63
2023-04-06T11:55:21.498Z,11.06
2023-04-06T11:57:52.796Z,10.96
2023-04-06T12:00:25.081Z,11.52
2023-04-06T12:02:55.502Z,11.46
2023-04-06T12:05:26.280Z,11.03
2023-04-06T12:07:57.529Z,11.36
2023-04-06T12:10:32.910Z,12.36
2023-04-06T12:13:03.246Z,12.61
2023-04-06T12:15:33.630Z,10.99
2023-04-06T12:18:04.011Z,10.27
2023-04-06T12:20:34.332Z,10.91
2023-04-06T12:23:04.877Z,11.68
2023-04-06T12:25:37.820Z,11.70
2023-04-06T12:28:08.283Z,10.76
2023-04-06T12:30:38.931Z,11.33
2023-04-06T12:33:09.292Z,11.26
2023-04-06T12:35:40.487Z,10.25
2023-04-06T12:38:10.792Z,10.08
2023-04-06T12:40:44.020Z,10.10
2023-04-06T12:43:14.401Z,9.45
2023-04-06T12:45:44.741Z,9.62
2023-04-06T12:48:15.500Z,9.90
2023-04-06T12:50:46.008Z,11.05
2023-04-06T12:53:16.406Z,10.47
2023-04-06T12:55:49.387Z,9.97
2023-04-06T12:58:19.909Z,11.23
2023-04-06T13:00:51.398Z,10.09
2023-04-06T13:03:22.060Z,10.06
2023-04-06T13:05:53.538Z,9.42
2023-04-06T13:08:24.074Z,9.34
2023-04-06T13:10:57.645Z,9.17
2023-04-06T13:13:29.268Z,9.50
2023-04-06T13:16:04.656Z,9.00
2023-04-06T13:18:35.889Z,9.20
2023-04-06T13:21:06.471Z,8.90
2023-04-06T13:23:36.883Z,9.24
2023-04-06T13:26:11.248Z,9.33
2023-04-06T13:28:41.951Z,9.46
2023-04-06T13:31:12.615Z,10.08
2023-04-06T13:33:43.381Z,9.41
2023-04-06T13:36:14.683Z,9.46
2023-04-06T13:38:46.975Z,9.30
2023-04-06T13:41:25.110Z,9.33
2023-04-06T13:43:55.841Z,9.23
2023-04-06T13:46:26.504Z,8.97
2023-04-06T13:48:56.842Z,8.85
2023-04-06T13:51:27.749Z,9.86
2023-04-06T13:53:57.905Z,9.33
2023-04-06T13:56:30.694Z,10.03
2023-04-06T13:59:00.984Z,9.96
2023-04-06T14:01:31.296Z,10.25
2023-04-06T14:04:01.569Z,9.72
2023-04-06T14:06:32.273Z,9.68
2023-04-06T14:09:02.623Z,10.06
2023-04-06T14:11:36.423Z,10.18
2023-04-06T14:14:06.803Z,11.08
2023-04-06T14:16:36.984Z,11.50
2023-04-06T14:19:07.173Z,10.98
2023-04-06T14:21:37.915Z,11.35
2023-04-06T14:24:08.597Z,11.16
2023-04-06T14:26:42.583Z,11.30
2023-04-06T14:29:13.217Z,11.14
2023-04-06T14:31:43.562Z,11.29
2023-04-06T14:34:15.649Z,10.86
2023-04-06T14:36:45.977Z,11.61
2023-04-06T14:39:16.248Z,11.55
2023-04-06T14:41:49.899Z,11.26
2023-04-06T14:44:21.466Z,11.57
2023-04-06T14:46:51.736Z,11.43
2023-04-06T14:49:21.950Z,10.58
2023-04-06T14:51:52.688Z,11.29
2023-04-06T14:54:22.857Z,11.71
2023-04-06T14:56:55.750Z,12.44
2023-04-06T14:59:25.898Z,12.88
2023-04-06T15:01:56.206Z,12.54
2023-04-06T15:04:26.547Z,14.07
2023-04-06T15:06:56.762Z,12.98
2023-04-06T15:09:27.073Z,13.71
2023-04-06T15:11:59.778Z,13.29
2023-04-06T15:14:29.892Z,13.99
2023-04-06T15:17:00.013Z,12.15
2023-04-06T15:19:30.529Z,13.03
2023-04-06T15:22:01.120Z,13.30
2023-04-06T15:24:31.389Z,13.22
2023-04-06T15:27:04.215Z,13.14
2023-04-06T15:29:34.711Z,13.20
2023-04-06T15:32:05.086Z,13.42
2023-04-06T15:34:35.442Z,13.12
2023-04-06T15:37:06.061Z,14.39
2023-04-06T15:39:37.938Z,14.72
2023-04-06T15:42:11.044Z,14.48
2023-04-06T15:44:41.212Z,14.75
2023-04-06T15:47:11.381Z,14.91
2023-04-06T15:49:41.500Z,14.63
2023-04-06T15:52:11.683Z,15.24
2023-04-06T15:54:41.827Z,15.63
2023-04-06T15:57:15.025Z,15.76
2023-04-06T15:59:45.285Z,16.82
2023-04-06T16:02:16.248Z,16.66
2023-04-06T16:04:46.644Z,17.57
2023-04-06T16:07:16.889Z,17.73
2023-04-06T16:09:47.288Z,18.47
2023-04-06T16:12:20.524Z,18.52
2023-04-06T16:14:50.945Z,19.55
2023-04-06T16:17:21.766Z,20.64
2023-04-06T16:19:52.687Z,20.71
2023-04-06T16:22:23.156Z,21.73
2023-04-06T16:24:53.260Z,21.80
2023-04-06T16:27:26.136Z,22.60
2023-04-06T16:29:56.365Z,23.00
2023-04-06T16:32:26.588Z,23.56
2023-04-06T16:34:56.790Z,23.91
2023-04-06T16:37:26.896Z,24.60
2023-04-06T16:39:57.395Z,24.66
2023-04-06T16:42:30.151Z,24.42
2023-04-06T16:45:00.567Z,25.12
2023-04-06T16:47:30.778Z,26.17
2023-04-06T16:50:05.476Z,26.31
2023-04-06T16:52:37.418Z,26.24
2023-04-06T16:55:08.700Z,26.03
2023-04-06T16:57:42.878Z,26.56
2023-04-06T17:00:14.715Z,27.24
2023-04-06T17:02:44.919Z,27.71
2023-04-06T17:05:15.329Z,27.29
2023-04-06T17:07:45.451Z,27.52
2023-04-06T17:10:16.988Z,27.33
2023-04-06T17:12:52.310Z,27.81
2023-04-06T17:15:24.752Z,28.25
2023-04-06T17:17:55.134Z,28.24
2023-04-06T17:20:25.318Z,28.51
2023-04-06T17:22:55.601Z,28.79
2023-04-06T17:25:25.754Z,29.08
2023-04-06T17:27:58.481Z,29.56
2023-04-06T17:30:28.815Z,29.64
2023-04-06T17:32:59.017Z,29.69
2023-04-06T17:35:29.647Z,29.75
2023-04-06T17:37:59.827Z,30.58
2023-04-06T17:40:29.967Z,30.86
2023-04-06T17:43:02.704Z,31.44
2023-04-06T17:45:32.872Z,30.93
2023-04-06T17:48:03.006Z,31.73
2023-04-06T17:50:33.293Z,31.80
2023-04-06T17:53:03.505Z,32.00
2023-04-06T17:55:33.669Z,32.40
2023-04-06T17:58:07.563Z,32.73
2023-04-06T18:00:37.844Z,33.45
2023-04-06T18:03:08.191Z,33.20
2023-04-06T18:05:39.812Z,33.77
2023-04-06T18:08:09.900Z,33.39
2023-04-06T18:10:42.250Z,33.47
2023-04-06T18:13:15.026Z,33.85
2023-04-06T18:15:45.218Z,34.13
2023-04-06T18:18:17.049Z,34.46
2023-04-06T18:20:47.383Z,34.50
2023-04-06T18:23:17.646Z,34.55
2023-04-06T18:25:47.834Z,34.42
2023-04-06T18:28:20.971Z,34.14
2023-04-06T18:30:51.460Z,34.47
2023-04-06T18:33:21.691Z,34.56
2023-04-06T18:35:51.898Z,35.04
2023-04-06T18:38:22.153Z,35.31
2023-04-06T18:40:52.354Z,34.79
2023-04-06T18:43:25.394Z,34.73
2023-04-06T18:45:55.608Z,35.54
2023-04-06T18:48:25.748Z,35.54
2023-04-06T18:50:57.862Z,35.21
2023-04-06T18:53:28.176Z,35.26
2023-04-06T18:55:59.517Z,35.66
2023-04-06T18:58:32.398Z,35.85
2023-04-06T19:01:02.972Z,35.96
2023-04-06T19:03:33.393Z,36.05
2023-04-06T19:06:03.714Z,36.07
2023-04-06T19:08:33.902Z,35.91
2023-04-06T19:11:09.527Z,36.33
2023-04-06T19:13:42.399Z,36.43
2023-04-06T19:16:12.964Z,36.31
2023-04-06T19:18:45.777Z,35.92
2023-04-06T19:21:19.766Z,36.03
2023-04-06T19:23:51.464Z,36.17
2023-04-06T19:26:23.051Z,36.02
2023-04-06T19:28:55.910Z,36.20
2023-04-06T19:31:27.159Z,35.82
2023-04-06T19:33:57.512Z,35.54
2023-04-06T19:36:28.522Z,35.85
2023-04-06T19:38:58.810Z,35.58
2023-04-06T19:41:29.492Z,35.54
2023-04-06T19:44:02.276Z,35.42
2023-04-06T19:46:32.508Z,35.32
2023-04-06T19:49:03.479Z,35.32
2023-04-06T19:51:35.705Z,35.33
2023-04-06T19:54:07.742Z,35.15
2023-04-06T19:56:37.995Z,35.54
2023-04-06T19:59:11.180Z,35.70
2023-04-06T20:01:41.402Z,35.67
2023-04-06T20:04:13.291Z,35.60
2023-04-06T20:06:43.542Z,35.63
2023-04-06T20:09:15.871Z,35.68
2023-04-06T20:11:46.216Z,35.74
2023-04-06T20:14:19.093Z,35.73
2023-04-06T20:16:49.527Z,35.98
2023-04-06T20:19:19.649Z,36.21
2023-04-06T20:21:49.803Z,35.78
2023-04-06T20:24:20.192Z,35.95
2023-04-06T20:26:50.939Z,35.44
2023-04-06T20:29:23.734Z,35.84
2023-04-06T20:31:53.925Z,35.87
2023-04-06T20:34:26.370Z,36.31
2023-04-06T20:36:56.582Z,36.26
2023-04-06T20:39:27.499Z,36.18
2023-04-06T20:41:57.659Z,35.96
2023-04-06T20:44:30.465Z,36.29
2023-04-06T20:47:00.731Z,36.27
2023-04-06T20:49:31.183Z,36.86
2023-04-06T20:52:01.777Z,36.98
2023-04-06T20:54:32.446Z,36.75
2023-04-06T20:57:03.114Z,36.70
2023-04-06T20:59:36.123Z,36.76
2023-04-06T21:02:06.293Z,37.27
2023-04-06T21:04:37.344Z,37.05
2023-04-06T21:07:08.432Z,36.99
2023-04-06T21:09:38.992Z,36.92
2023-04-06T21:12:10.258Z,37.31
2023-04-06T21:14:43.139Z,36.77
2023-04-06T21:17:13.445Z,36.75
2023-04-06T21:19:43.585Z,37.19
2023-04-06T21:22:13.721Z,38.43
2023-04-06T21:24:44.801Z,39.28
2023-04-06T21:27:14.907Z,39.08
2023-04-06T21:29:47.780Z,39.08
2023-04-06T21:32:18.022Z,39.13
2023-04-06T21:34:48.982Z,38.69
2023-04-06T21:37:19.813Z,38.42
2023-04-06T21:39:50.092Z,38.63
2023-04-06T21:42:20.254Z,38.83
2023-04-06T21:44:53.096Z,38.54
2023-04-06T21:47:23.309Z,39.75
2023-04-06T21:49:53.432Z,39.86
2023-04-06T21:52:23.567Z,39.44
2023-04-06T21:54:53.758Z,39.12
2023-04-06T21:57:23.980Z,38.89
2023-04-06T21:59:57.374Z,38.48
2023-04-06T22:02:29.253Z,38.17
2023-04-06T22:04:59.561Z,38.26
2023-04-06T22:07:29.770Z,38.56
2023-04-06T22:09:59.950Z,38.49
2023-04-06T22:12:30.033Z,39.14
2023-04-06T22:15:03.159Z,39.15
2023-04-06T22:17:33.719Z,38.80
2023-04-06T22:20:03.954Z,39.16
2023-04-06T22:22:34.176Z,39.47
2023-04-06T22:25:04.553Z,39.56
2023-04-06T22:27:34.748Z,39.21
2023-04-06T22:30:08.545Z,39.62
2023-04-06T22:32:38.807Z,39.44
2023-04-06T22:35:10.395Z,39.75
2023-04-06T22:37:40.612Z,39.77
2023-04-06T22:40:11.935Z,39.94
2023-04-06T22:42:42.230Z,39.84
2023-04-06T22:45:15.172Z,40.00
2023-04-06T22:47:45.595Z,39.66
2023-04-06T22:50:16.203Z,39.71
2023-04-06T22:52:46.619Z,39.97
2023-04-06T22:55:16.890Z,39.92
2023-04-06T22:57:47.009Z,40.10
2023-04-06T23:00:20.189Z,40.08
2023-04-06T23:02:50.479Z,39.67
2023-04-06T23:05:21.510Z,39.53
2023-04-06T23:07:51.806Z,39.46
2023-04-06T23:10:22.608Z,39.21
2023-04-06T23:12:53.007Z,39.11
2023-04-06T23:15:26.010Z,39.39
2023-04-06T23:17:56.141Z,39.72
2023-04-06T23:20:26.576Z,39.75
2023-04-06T23:22:56.725Z,39.79
2023-04-06T23:25:27.339Z,39.54
2023-04-06T23:27:57.497Z,39.91
2023-04-06T23:30:30.396Z,40.11
2023-04-06T23:33:01.279Z,39.86
2023-04-06T23:35:31.460Z,39.45
2023-04-06T23:38:02.047Z,39.71
2023-04-06T23:40:32.327Z,40.35
2023-04-06T23:43:02.420Z,40.73
2023-04-06T23:45:35.640Z,40.70
2023-04-06T23:48:05.867Z,40.81
2023-04-06T23:50:37.724Z,40.79
2023-04-06T23:53:08.126Z,40.76
2023-04-06T23:55:38.297Z,40.87
2023-04-06T23:58:08.467Z,40.85
